sensor_id;sensor_type;location;lat;lon;timestamp;P1;durP1;ratioP1;P2;durP2;ratioP2
30677;SDS011;73746;47.466;8.992;2024-02-15T00:01:51;1.82;;;1.10;;
30677;SDS011;73746;47.466;8.992;2024-02-15T00:04:23;2.25;;;1.45;;
30677;SDS011;73746;47.466;8.992;2024-02-15T00:06:54;5.87;;;2.00;;
30677;SDS011;73746;47.466;8.992;2024-02-15T00:09:26;1.82;;;1.07;;
30677;SDS011;73746;47.466;8.992;2024-02-15T00:11:58;2.35;;;1.75;;
30677;SDS011;73746;47.466;8.992;2024-02-15T00:14:31;1.80;;;1.20;;
30677;SDS011;73746;47.466;8.992;2024-02-15T00:17:03;2.17;;;1.00;;
30677;SDS011;73746;47.466;8.992;2024-02-15T00:19:36;3.35;;;2.02;;
30677;SDS011;73746;47.466;8.992;2024-02-15T00:22:08;3.42;;;1.10;;
30677;SDS011;73746;47.466;8.992;2024-02-15T00:24:40;1.37;;;1.17;;
30677;SDS011;73746;47.466;8.992;2024-02-15T00:27:14;2.65;;;1.02;;
30677;SDS011;73746;47.466;8.992;2024-02-15T00:29:46;3.80;;;0.90;;
30677;SDS011;73746;47.466;8.992;2024-02-15T00:32:18;1.17;;;0.75;;
30677;SDS011;73746;47.466;8.992;2024-02-15T00:34:50;1.45;;;0.90;;
30677;SDS011;73746;47.466;8.992;2024-02-15T00:37:22;1.50;;;0.90;;
30677;SDS011;73746;47.466;8.992;2024-02-15T00:39:54;1.65;;;0.95;;
30677;SDS011;73746;47.466;8.992;2024-02-15T00:42:26;4.35;;;1.55;;
30677;SDS011;73746;47.466;8.992;2024-02-15T00:44:58;2.72;;;1.40;;
30677;SDS011;73746;47.466;8.992;2024-02-15T00:47:31;2.98;;;1.65;;
30677;SDS011;73746;47.466;8.992;2024-02-15T00:50:03;2.92;;;0.93;;
30677;SDS011;73746;47.466;8.992;2024-02-15T00:52:37;1.77;;;0.98;;
30677;SDS011;73746;47.466;8.992;2024-02-15T00:55:09;1.45;;;0.82;;
30677;SDS011;73746;47.466;8.992;2024-02-15T00:57:40;3.70;;;1.27;;
30677;SDS011;73746;47.466;8.992;2024-02-15T01:00:13;2.30;;;1.12;;
30677;SDS011;73746;47.466;8.992;2024-02-15T01:02:46;2.83;;;1.62;;
30677;SDS011;73746;47.466;8.992;2024-02-15T01:05:19;1.35;;;0.78;;
30677;SDS011;73746;47.466;8.992;2024-02-15T01:07:51;2.00;;;0.88;;
30677;SDS011;73746;47.466;8.992;2024-02-15T01:13:07;1.72;;;1.32;;
30677;SDS011;73746;47.466;8.992;2024-02-15T01:15:39;1.45;;;0.90;;
30677;SDS011;73746;47.466;8.992;2024-02-15T01:18:11;3.83;;;0.90;;
30677;SDS011;73746;47.466;8.992;2024-02-15T01:20:43;2.67;;;1.72;;
30677;SDS011;73746;47.466;8.992;2024-02-15T01:23:15;1.52;;;0.80;;
30677;SDS011;73746;47.466;8.992;2024-02-15T01:25:48;2.12;;;0.90;;
30677;SDS011;73746;47.466;8.992;2024-02-15T01:28:20;1.47;;;0.93;;
30677;SDS011;73746;47.466;8.992;2024-02-15T01:30:51;1.12;;;1.00;;
30677;SDS011;73746;47.466;8.992;2024-02-15T01:33:24;2.12;;;1.15;;
30677;SDS011;73746;47.466;8.992;2024-02-15T01:35:57;1.32;;;0.90;;
30677;SDS011;73746;47.466;8.992;2024-02-15T01:38:29;1.30;;;0.75;;
30677;SDS011;73746;47.466;8.992;2024-02-15T01:41:01;1.75;;;1.12;;
30677;SDS011;73746;47.466;8.992;2024-02-15T01:43:33;1.70;;;0.80;;
30677;SDS011;73746;47.466;8.992;2024-02-15T01:46:07;1.82;;;1.00;;
30677;SDS011;73746;47.466;8.992;2024-02-15T01:48:40;1.70;;;1.27;;
30677;SDS011;73746;47.466;8.992;2024-02-15T01:51:13;0.95;;;0.55;;
30677;SDS011;73746;47.466;8.992;2024-02-15T01:53:46;0.80;;;0.70;;
30677;SDS011;73746;47.466;8.992;2024-02-15T01:56:18;0.70;;;0.70;;
30677;SDS011;73746;47.466;8.992;2024-02-15T01:58:52;2.40;;;0.80;;
30677;SDS011;73746;47.466;8.992;2024-02-15T02:01:24;0.95;;;0.70;;
30677;SDS011;73746;47.466;8.992;2024-02-15T02:03:56;2.95;;;1.47;;
30677;SDS011;73746;47.466;8.992;2024-02-15T02:06:28;1.72;;;0.93;;
30677;SDS011;73746;47.466;8.992;2024-02-15T02:09:01;0.93;;;0.62;;
30677;SDS011;73746;47.466;8.992;2024-02-15T02:11:33;3.80;;;1.15;;
30677;SDS011;73746;47.466;8.992;2024-02-15T02:16:56;1.90;;;1.50;;
30677;SDS011;73746;47.466;8.992;2024-02-15T02:19:29;1.95;;;1.10;;
30677;SDS011;73746;47.466;8.992;2024-02-15T02:22:02;1.70;;;1.25;;
30677;SDS011;73746;47.466;8.992;2024-02-15T02:24:35;2.37;;;1.20;;
30677;SDS011;73746;47.466;8.992;2024-02-15T02:27:11;1.25;;;0.78;;
30677;SDS011;73746;47.466;8.992;2024-02-15T02:29:45;3.37;;;1.00;;
30677;SDS011;73746;47.466;8.992;2024-02-15T02:32:17;1.27;;;0.80;;
30677;SDS011;73746;47.466;8.992;2024-02-15T02:34:49;1.12;;;1.02;;
30677;SDS011;73746;47.466;8.992;2024-02-15T02:37:22;1.52;;;0.80;;
30677;SDS011;73746;47.466;8.992;2024-02-15T02:39:54;2.02;;;0.82;;
30677;SDS011;73746;47.466;8.992;2024-02-15T02:42:26;3.22;;;1.07;;
30677;SDS011;73746;47.466;8.992;2024-02-15T02:44:58;0.80;;;0.70;;
30677;SDS011;73746;47.466;8.992;2024-02-15T02:47:32;5.05;;;0.90;;
30677;SDS011;73746;47.466;8.992;2024-02-15T02:50:06;1.92;;;1.30;;
30677;SDS011;73746;47.466;8.992;2024-02-15T02:52:38;3.08;;;0.80;;
30677;SDS011;73746;47.466;8.992;2024-02-15T02:55:12;5.85;;;2.05;;
30677;SDS011;73746;47.466;8.992;2024-02-15T02:57:44;3.30;;;1.82;;
30677;SDS011;73746;47.466;8.992;2024-02-15T03:00:16;1.00;;;0.90;;
30677;SDS011;73746;47.466;8.992;2024-02-15T03:05:40;1.98;;;1.07;;
30677;SDS011;73746;47.466;8.992;2024-02-15T03:08:12;1.27;;;0.93;;
30677;SDS011;73746;47.466;8.992;2024-02-15T03:10:46;1.72;;;0.82;;
30677;SDS011;73746;47.466;8.992;2024-02-15T03:13:18;2.55;;;1.75;;
30677;SDS011;73746;47.466;8.992;2024-02-15T03:15:50;1.82;;;1.25;;
30677;SDS011;73746;47.466;8.992;2024-02-15T03:18:22;1.87;;;1.25;;
30677;SDS011;73746;47.466;8.992;2024-02-15T03:20:54;1.85;;;0.98;;
30677;SDS011;73746;47.466;8.992;2024-02-15T03:23:26;1.47;;;0.90;;
30677;SDS011;73746;47.466;8.992;2024-02-15T03:25:58;0.90;;;0.65;;
30677;SDS011;73746;47.466;8.992;2024-02-15T03:28:31;1.55;;;1.20;;
30677;SDS011;73746;47.466;8.992;2024-02-15T03:31:05;1.50;;;0.90;;
30677;SDS011;73746;47.466;8.992;2024-02-15T03:33:37;1.05;;;0.93;;
30677;SDS011;73746;47.466;8.992;2024-02-15T03:36:10;2.83;;;0.80;;
30677;SDS011;73746;47.466;8.992;2024-02-15T03:38:43;1.50;;;1.00;;
30677;SDS011;73746;47.466;8.992;2024-02-15T03:41:16;1.47;;;0.85;;
30677;SDS011;73746;47.466;8.992;2024-02-15T03:43:48;2.10;;;1.00;;
30677;SDS011;73746;47.466;8.992;2024-02-15T03:46:20;3.42;;;1.00;;
30677;SDS011;73746;47.466;8.992;2024-02-15T03:48:53;2.85;;;1.42;;
30677;SDS011;73746;47.466;8.992;2024-02-15T03:51:26;2.90;;;1.30;;
30677;SDS011;73746;47.466;8.992;2024-02-15T03:53:58;1.87;;;1.75;;
30677;SDS011;73746;47.466;8.992;2024-02-15T03:56:32;1.10;;;1.00;;
30677;SDS011;73746;47.466;8.992;2024-02-15T03:59:05;2.17;;;1.22;;
30677;SDS011;73746;47.466;8.992;2024-02-15T04:01:37;1.42;;;1.05;;
30677;SDS011;73746;47.466;8.992;2024-02-15T04:04:09;1.42;;;1.05;;
30677;SDS011;73746;47.466;8.992;2024-02-15T04:06:42;2.45;;;1.55;;
30677;SDS011;73746;47.466;8.992;2024-02-15T04:09:15;1.35;;;0.93;;
30677;SDS011;73746;47.466;8.992;2024-02-15T04:11:47;1.77;;;1.15;;
30677;SDS011;73746;47.466;8.992;2024-02-15T04:14:21;4.45;;;1.62;;
30677;SDS011;73746;47.466;8.992;2024-02-15T04:16:54;3.02;;;2.25;;
30677;SDS011;73746;47.466;8.992;2024-02-15T04:19:27;2.95;;;2.00;;
30677;SDS011;73746;47.466;8.992;2024-02-15T04:21:59;1.82;;;1.42;;
30677;SDS011;73746;47.466;8.992;2024-02-15T04:24:33;1.45;;;1.12;;
30677;SDS011;73746;47.466;8.992;2024-02-15T04:27:06;1.80;;;1.10;;
30677;SDS011;73746;47.466;8.992;2024-02-15T04:29:40;2.27;;;1.12;;
30677;SDS011;73746;47.466;8.992;2024-02-15T04:32:13;1.80;;;1.70;;
30677;SDS011;73746;47.466;8.992;2024-02-15T04:34:45;1.45;;;1.07;;
30677;SDS011;73746;47.466;8.992;2024-02-15T04:37:17;1.42;;;0.93;;
30677;SDS011;73746;47.466;8.992;2024-02-15T04:39:50;1.85;;;1.10;;
30677;SDS011;73746;47.466;8.992;2024-02-15T04:42:22;2.02;;;1.22;;
30677;SDS011;73746;47.466;8.992;2024-02-15T04:44:56;4.08;;;1.10;;
30677;SDS011;73746;47.466;8.992;2024-02-15T04:47:28;3.05;;;1.00;;
30677;SDS011;73746;47.466;8.992;2024-02-15T04:50:00;1.67;;;1.10;;
30677;SDS011;73746;47.466;8.992;2024-02-15T04:52:35;3.20;;;1.32;;
30677;SDS011;73746;47.466;8.992;2024-02-15T04:55:08;3.30;;;1.10;;
30677;SDS011;73746;47.466;8.992;2024-02-15T04:57:40;3.35;;;1.60;;
30677;SDS011;73746;47.466;8.992;2024-02-15T05:00:12;2.25;;;1.30;;
30677;SDS011;73746;47.466;8.992;2024-02-15T05:02:46;3.58;;;2.65;;
30677;SDS011;73746;47.466;8.992;2024-02-15T05:05:19;4.25;;;1.20;;
30677;SDS011;73746;47.466;8.992;2024-02-15T05:07:53;5.92;;;1.70;;
30677;SDS011;73746;47.466;8.992;2024-02-15T05:10:25;1.87;;;1.20;;
30677;SDS011;73746;47.466;8.992;2024-02-15T05:12:57;1.92;;;1.20;;
30677;SDS011;73746;47.466;8.992;2024-02-15T05:15:32;2.22;;;1.07;;
30677;SDS011;73746;47.466;8.992;2024-02-15T05:20:44;3.65;;;1.87;;
30677;SDS011;73746;47.466;8.992;2024-02-15T05:23:16;2.83;;;1.10;;
30677;SDS011;73746;47.466;8.992;2024-02-15T05:25:47;4.40;;;1.55;;
30677;SDS011;73746;47.466;8.992;2024-02-15T05:28:19;2.33;;;1.40;;
30677;SDS011;73746;47.466;8.992;2024-02-15T05:31:08;2.65;;;1.50;;
30677;SDS011;73746;47.466;8.992;2024-02-15T05:33:46;2.17;;;1.55;;
30677;SDS011;73746;47.466;8.992;2024-02-15T05:36:20;2.00;;;1.57;;
30677;SDS011;73746;47.466;8.992;2024-02-15T05:38:54;1.72;;;1.12;;
30677;SDS011;73746;47.466;8.992;2024-02-15T05:41:26;3.70;;;1.67;;
30677;SDS011;73746;47.466;8.992;2024-02-15T05:43:58;2.65;;;1.87;;
30677;SDS011;73746;47.466;8.992;2024-02-15T05:46:30;3.30;;;1.60;;
30677;SDS011;73746;47.466;8.992;2024-02-15T05:49:04;9.13;;;2.30;;
30677;SDS011;73746;47.466;8.992;2024-02-15T05:51:37;2.37;;;1.90;;
30677;SDS011;73746;47.466;8.992;2024-02-15T05:54:11;6.30;;;1.75;;
30677;SDS011;73746;47.466;8.992;2024-02-15T05:56:43;2.87;;;1.37;;
30677;SDS011;73746;47.466;8.992;2024-02-15T05:59:17;1.47;;;1.22;;
30677;SDS011;73746;47.466;8.992;2024-02-15T06:01:50;4.55;;;2.60;;
30677;SDS011;73746;47.466;8.992;2024-02-15T06:04:22;3.50;;;2.12;;
30677;SDS011;73746;47.466;8.992;2024-02-15T06:06:55;8.93;;;4.30;;
30677;SDS011;73746;47.466;8.992;2024-02-15T06:09:29;9.28;;;4.72;;
30677;SDS011;73746;47.466;8.992;2024-02-15T06:12:03;18.62;;;6.30;;
30677;SDS011;73746;47.466;8.992;2024-02-15T06:14:36;12.93;;;5.65;;
30677;SDS011;73746;47.466;8.992;2024-02-15T06:17:08;14.28;;;8.05;;
30677;SDS011;73746;47.466;8.992;2024-02-15T06:19:40;9.75;;;5.70;;
30677;SDS011;73746;47.466;8.992;2024-02-15T06:22:13;11.35;;;5.67;;
30677;SDS011;73746;47.466;8.992;2024-02-15T06:24:45;13.72;;;8.73;;
30677;SDS011;73746;47.466;8.992;2024-02-15T06:27:17;9.30;;;5.10;;
30677;SDS011;73746;47.466;8.992;2024-02-15T06:29:49;5.45;;;3.72;;
30677;SDS011;73746;47.466;8.992;2024-02-15T06:32:40;4.90;;;3.05;;
30677;SDS011;73746;47.466;8.992;2024-02-15T06:35:29;5.47;;;3.27;;
30677;SDS011;73746;47.466;8.992;2024-02-15T06:38:19;4.17;;;1.80;;
30677;SDS011;73746;47.466;8.992;2024-02-15T06:41:09;4.35;;;2.58;;
30677;SDS011;73746;47.466;8.992;2024-02-15T06:43:40;5.58;;;2.33;;
30677;SDS011;73746;47.466;8.992;2024-02-15T06:46:12;7.12;;;3.30;;
30677;SDS011;73746;47.466;8.992;2024-02-15T06:48:44;4.72;;;3.33;;
30677;SDS011;73746;47.466;8.992;2024-02-15T06:51:16;4.97;;;2.83;;
30677;SDS011;73746;47.466;8.992;2024-02-15T06:53:48;3.70;;;2.30;;
30677;SDS011;73746;47.466;8.992;2024-02-15T06:56:20;3.65;;;3.22;;
30677;SDS011;73746;47.466;8.992;2024-02-15T06:58:53;5.12;;;2.70;;
30677;SDS011;73746;47.466;8.992;2024-02-15T07:01:25;7.05;;;3.98;;
30677;SDS011;73746;47.466;8.992;2024-02-15T07:03:57;5.85;;;3.12;;
30677;SDS011;73746;47.466;8.992;2024-02-15T07:06:29;5.25;;;3.12;;
30677;SDS011;73746;47.466;8.992;2024-02-15T07:09:01;5.35;;;4.10;;
30677;SDS011;73746;47.466;8.992;2024-02-15T07:11:35;4.10;;;2.40;;
30677;SDS011;73746;47.466;8.992;2024-02-15T07:14:07;4.20;;;1.95;;
30677;SDS011;73746;47.466;8.992;2024-02-15T07:16:39;5.35;;;3.02;;
30677;SDS011;73746;47.466;8.992;2024-02-15T07:19:13;4.75;;;2.92;;
30677;SDS011;73746;47.466;8.992;2024-02-15T07:21:46;5.40;;;3.20;;
30677;SDS011;73746;47.466;8.992;2024-02-15T07:24:18;5.03;;;2.98;;
30677;SDS011;73746;47.466;8.992;2024-02-15T07:26:50;9.48;;;6.78;;
30677;SDS011;73746;47.466;8.992;2024-02-15T07:29:23;7.50;;;3.12;;
30677;SDS011;73746;47.466;8.992;2024-02-15T07:31:57;7.58;;;3.60;;
30677;SDS011;73746;47.466;8.992;2024-02-15T07:34:28;9.18;;;4.67;;
30677;SDS011;73746;47.466;8.992;2024-02-15T07:37:01;8.30;;;3.52;;
30677;SDS011;73746;47.466;8.992;2024-02-15T07:39:34;4.50;;;2.65;;
30677;SDS011;73746;47.466;8.992;2024-02-15T07:42:06;7.62;;;2.33;;
30677;SDS011;73746;47.466;8.992;2024-02-15T07:44:38;6.30;;;3.77;;
30677;SDS011;73746;47.466;8.992;2024-02-15T07:47:12;8.80;;;3.00;;
30677;SDS011;73746;47.466;8.992;2024-02-15T07:49:43;4.40;;;2.62;;
30677;SDS011;73746;47.466;8.992;2024-02-15T07:52:15;5.00;;;2.58;;
30677;SDS011;73746;47.466;8.992;2024-02-15T07:54:48;6.47;;;3.60;;
30677;SDS011;73746;47.466;8.992;2024-02-15T07:57:21;6.15;;;3.37;;
30677;SDS011;73746;47.466;8.992;2024-02-15T07:59:54;4.80;;;3.20;;
30677;SDS011;73746;47.466;8.992;2024-02-15T08:02:27;6.28;;;3.10;;
30677;SDS011;73746;47.466;8.992;2024-02-15T08:04:58;5.58;;;3.00;;
30677;SDS011;73746;47.466;8.992;2024-02-15T08:07:32;5.65;;;2.70;;
30677;SDS011;73746;47.466;8.992;2024-02-15T08:10:07;5.37;;;3.27;;
30677;SDS011;73746;47.466;8.992;2024-02-15T08:12:42;3.72;;;1.95;;
30677;SDS011;73746;47.466;8.992;2024-02-15T08:15:15;7.30;;;2.47;;
30677;SDS011;73746;47.466;8.992;2024-02-15T08:17:47;4.80;;;1.82;;
30677;SDS011;73746;47.466;8.992;2024-02-15T08:20:19;5.95;;;2.75;;
30677;SDS011;73746;47.466;8.992;2024-02-15T08:22:51;3.67;;;2.05;;
30677;SDS011;73746;47.466;8.992;2024-02-15T08:25:23;4.28;;;2.02;;
30677;SDS011;73746;47.466;8.992;2024-02-15T08:27:55;4.40;;;2.27;;
30677;SDS011;73746;47.466;8.992;2024-02-15T08:30:27;3.62;;;2.05;;
30677;SDS011;73746;47.466;8.992;2024-02-15T08:32:59;6.03;;;2.92;;
30677;SDS011;73746;47.466;8.992;2024-02-15T08:35:31;3.58;;;2.50;;
30677;SDS011;73746;47.466;8.992;2024-02-15T08:38:04;5.42;;;1.57;;
30677;SDS011;73746;47.466;8.992;2024-02-15T08:40:36;3.77;;;2.40;;
30677;SDS011;73746;47.466;8.992;2024-02-15T08:43:07;4.25;;;2.02;;
30677;SDS011;73746;47.466;8.992;2024-02-15T08:45:40;3.42;;;2.12;;
30677;SDS011;73746;47.466;8.992;2024-02-15T08:48:12;2.55;;;1.67;;
30677;SDS011;73746;47.466;8.992;2024-02-15T08:50:44;5.35;;;1.55;;
30677;SDS011;73746;47.466;8.992;2024-02-15T08:53:16;4.95;;;2.08;;
30677;SDS011;73746;47.466;8.992;2024-02-15T08:55:48;2.85;;;2.22;;
30677;SDS011;73746;47.466;8.992;2024-02-15T08:58:21;3.15;;;1.40;;
30677;SDS011;73746;47.466;8.992;2024-02-15T09:00:53;3.30;;;1.70;;
30677;SDS011;73746;47.466;8.992;2024-02-15T09:03:25;7.00;;;2.60;;
30677;SDS011;73746;47.466;8.992;2024-02-15T09:05:57;7.35;;;2.67;;
30677;SDS011;73746;47.466;8.992;2024-02-15T09:08:31;4.83;;;2.37;;
30677;SDS011;73746;47.466;8.992;2024-02-15T09:11:03;4.30;;;1.70;;
30677;SDS011;73746;47.466;8.992;2024-02-15T09:13:37;3.92;;;2.37;;
30677;SDS011;73746;47.466;8.992;2024-02-15T09:16:09;3.20;;;1.90;;
30677;SDS011;73746;47.466;8.992;2024-02-15T09:18:41;3.55;;;1.70;;
30677;SDS011;73746;47.466;8.992;2024-02-15T09:21:15;2.30;;;1.35;;
30677;SDS011;73746;47.466;8.992;2024-02-15T09:23:47;2.30;;;1.40;;
30677;SDS011;73746;47.466;8.992;2024-02-15T09:26:19;2.83;;;1.75;;
30677;SDS011;73746;47.466;8.992;2024-02-15T09:28:51;5.53;;;1.77;;
30677;SDS011;73746;47.466;8.992;2024-02-15T09:31:23;2.30;;;1.50;;
30677;SDS011;73746;47.466;8.992;2024-02-15T09:33:55;3.90;;;1.65;;
30677;SDS011;73746;47.466;8.992;2024-02-15T09:36:28;4.35;;;2.02;;
30677;SDS011;73746;47.466;8.992;2024-02-15T09:39:01;3.80;;;2.00;;
30677;SDS011;73746;47.466;8.992;2024-02-15T09:41:33;4.75;;;1.57;;
30677;SDS011;73746;47.466;8.992;2024-02-15T09:44:05;6.80;;;2.45;;
30677;SDS011;73746;47.466;8.992;2024-02-15T09:46:40;3.17;;;1.20;;
30677;SDS011;73746;47.466;8.992;2024-02-15T09:49:13;2.75;;;1.40;;
30677;SDS011;73746;47.466;8.992;2024-02-15T09:51:46;1.52;;;1.42;;
30677;SDS011;73746;47.466;8.992;2024-02-15T09:54:19;5.58;;;2.05;;
30677;SDS011;73746;47.466;8.992;2024-02-15T09:56:52;3.35;;;1.30;;
30677;SDS011;73746;47.466;8.992;2024-02-15T09:59:24;5.35;;;1.87;;
30677;SDS011;73746;47.466;8.992;2024-02-15T10:01:58;2.90;;;1.27;;
30677;SDS011;73746;47.466;8.992;2024-02-15T10:04:30;6.25;;;1.40;;
30677;SDS011;73746;47.466;8.992;2024-02-15T10:07:04;3.10;;;1.25;;
30677;SDS011;73746;47.466;8.992;2024-02-15T10:09:38;3.10;;;1.37;;
30677;SDS011;73746;47.466;8.992;2024-02-15T10:12:12;6.65;;;1.22;;
30677;SDS011;73746;47.466;8.992;2024-02-15T10:14:47;2.47;;;1.15;;
30677;SDS011;73746;47.466;8.992;2024-02-15T10:17:20;4.00;;;1.85;;
30677;SDS011;73746;47.466;8.992;2024-02-15T10:20:03;2.35;;;1.30;;
30677;SDS011;73746;47.466;8.992;2024-02-15T10:22:36;3.20;;;1.42;;
30677;SDS011;73746;47.466;8.992;2024-02-15T10:25:11;4.10;;;2.00;;
30677;SDS011;73746;47.466;8.992;2024-02-15T10:27:44;2.85;;;1.98;;
30677;SDS011;73746;47.466;8.992;2024-02-15T10:30:18;3.33;;;1.70;;
30677;SDS011;73746;47.466;8.992;2024-02-15T10:32:50;2.60;;;1.45;;
30677;SDS011;73746;47.466;8.992;2024-02-15T10:35:24;2.47;;;1.45;;
30677;SDS011;73746;47.466;8.992;2024-02-15T10:38:05;2.33;;;1.67;;
30677;SDS011;73746;47.466;8.992;2024-02-15T10:40:38;3.30;;;1.57;;
30677;SDS011;73746;47.466;8.992;2024-02-15T10:43:11;3.12;;;2.20;;
30677;SDS011;73746;47.466;8.992;2024-02-15T10:45:46;3.77;;;1.92;;
30677;SDS011;73746;47.466;8.992;2024-02-15T10:48:18;3.17;;;2.20;;
30677;SDS011;73746;47.466;8.992;2024-02-15T10:50:50;8.45;;;2.22;;
30677;SDS011;73746;47.466;8.992;2024-02-15T10:53:25;5.65;;;2.05;;
30677;SDS011;73746;47.466;8.992;2024-02-15T10:56:02;7.53;;;2.75;;
30677;SDS011;73746;47.466;8.992;2024-02-15T10:58:38;4.08;;;2.50;;
30677;SDS011;73746;47.466;8.992;2024-02-15T11:01:11;3.25;;;2.25;;
30677;SDS011;73746;47.466;8.992;2024-02-15T11:03:48;2.92;;;2.20;;
30677;SDS011;73746;47.466;8.992;2024-02-15T11:06:21;3.30;;;1.77;;
30677;SDS011;73746;47.466;8.992;2024-02-15T11:08:56;3.62;;;2.10;;
30677;SDS011;73746;47.466;8.992;2024-02-15T11:11:29;5.40;;;2.80;;
30677;SDS011;73746;47.466;8.992;2024-02-15T11:16:54;3.22;;;2.25;;
30677;SDS011;73746;47.466;8.992;2024-02-15T11:22:26;3.52;;;2.52;;
30677;SDS011;73746;47.466;8.992;2024-02-15T11:24:59;4.80;;;2.30;;
30677;SDS011;73746;47.466;8.992;2024-02-15T11:27:32;3.65;;;2.65;;
30677;SDS011;73746;47.466;8.992;2024-02-15T11:30:07;3.08;;;2.12;;
30677;SDS011;73746;47.466;8.992;2024-02-15T11:32:41;4.72;;;1.60;;
30677;SDS011;73746;47.466;8.992;2024-02-15T11:35:16;2.92;;;2.25;;
30677;SDS011;73746;47.466;8.992;2024-02-15T11:37:53;2.52;;;1.95;;
30677;SDS011;73746;47.466;8.992;2024-02-15T11:43:50;3.47;;;2.30;;
30677;SDS011;73746;47.466;8.992;2024-02-15T11:46:26;3.77;;;2.15;;
30677;SDS011;73746;47.466;8.992;2024-02-15T11:49:01;3.40;;;2.35;;
30677;SDS011;73746;47.466;8.992;2024-02-15T11:51:35;2.37;;;2.05;;
30677;SDS011;73746;47.466;8.992;2024-02-15T11:54:09;3.17;;;2.30;;
30677;SDS011;73746;47.466;8.992;2024-02-15T11:56:54;2.98;;;2.02;;
30677;SDS011;73746;47.466;8.992;2024-02-15T11:59:41;2.83;;;2.10;;
30677;SDS011;73746;47.466;8.992;2024-02-15T12:02:24;2.65;;;2.00;;
30677;SDS011;73746;47.466;8.992;2024-02-15T12:05:14;3.15;;;2.47;;
30677;SDS011;73746;47.466;8.992;2024-02-15T12:08:05;3.62;;;2.33;;
30677;SDS011;73746;47.466;8.992;2024-02-15T12:10:58;2.65;;;2.15;;
30677;SDS011;73746;47.466;8.992;2024-02-15T12:13:50;2.33;;;1.95;;
30677;SDS011;73746;47.466;8.992;2024-02-15T12:16:40;4.97;;;2.93;;
30677;SDS011;73746;47.466;8.992;2024-02-15T12:19:29;4.90;;;2.52;;
30677;SDS011;73746;47.466;8.992;2024-02-15T12:22:03;3.80;;;2.50;;
30677;SDS011;73746;47.466;8.992;2024-02-15T12:24:36;3.35;;;2.35;;
30677;SDS011;73746;47.466;8.992;2024-02-15T12:27:08;5.60;;;3.35;;
30677;SDS011;73746;47.466;8.992;2024-02-15T12:29:41;5.55;;;3.02;;
30677;SDS011;73746;47.466;8.992;2024-02-15T12:32:20;4.40;;;2.52;;
30677;SDS011;73746;47.466;8.992;2024-02-15T12:34:53;3.47;;;2.45;;
30677;SDS011;73746;47.466;8.992;2024-02-15T12:37:45;4.75;;;2.85;;
30677;SDS011;73746;47.466;8.992;2024-02-15T12:40:18;3.45;;;2.52;;
30677;SDS011;73746;47.466;8.992;2024-02-15T12:42:51;4.40;;;2.77;;
30677;SDS011;73746;47.466;8.992;2024-02-15T12:45:25;4.87;;;3.58;;
30677;SDS011;73746;47.466;8.992;2024-02-15T12:47:59;4.30;;;3.42;;
30677;SDS011;73746;47.466;8.992;2024-02-15T12:50:34;2.72;;;2.40;;
30677;SDS011;73746;47.466;8.992;2024-02-15T12:53:06;3.30;;;2.70;;
30677;SDS011;73746;47.466;8.992;2024-02-15T12:55:39;6.37;;;3.75;;
30677;SDS011;73746;47.466;8.992;2024-02-15T12:58:13;3.83;;;2.98;;
30677;SDS011;73746;47.466;8.992;2024-02-15T13:00:46;6.53;;;2.75;;
30677;SDS011;73746;47.466;8.992;2024-02-15T13:03:18;2.30;;;2.02;;
30677;SDS011;73746;47.466;8.992;2024-02-15T13:05:51;2.27;;;2.02;;
30677;SDS011;73746;47.466;8.992;2024-02-15T13:08:23;3.15;;;2.35;;
30677;SDS011;73746;47.466;8.992;2024-02-15T13:10:55;2.98;;;2.55;;
30677;SDS011;73746;47.466;8.992;2024-02-15T13:13:27;3.80;;;2.85;;
30677;SDS011;73746;47.466;8.992;2024-02-15T13:16:00;6.35;;;2.95;;
30677;SDS011;73746;47.466;8.992;2024-02-15T13:18:32;4.72;;;2.98;;
30677;SDS011;73746;47.466;8.992;2024-02-15T13:21:04;4.62;;;2.72;;
30677;SDS011;73746;47.466;8.992;2024-02-15T13:23:36;5.60;;;2.85;;
30677;SDS011;73746;47.466;8.992;2024-02-15T13:26:08;3.58;;;2.65;;
30677;SDS011;73746;47.466;8.992;2024-02-15T13:28:40;4.78;;;3.25;;
30677;SDS011;73746;47.466;8.992;2024-02-15T13:31:15;4.87;;;3.10;;
30677;SDS011;73746;47.466;8.992;2024-02-15T13:33:49;4.25;;;2.90;;
30677;SDS011;73746;47.466;8.992;2024-02-15T13:36:21;3.83;;;3.08;;
30677;SDS011;73746;47.466;8.992;2024-02-15T13:38:53;5.72;;;3.12;;
30677;SDS011;73746;47.466;8.992;2024-02-15T13:41:26;5.42;;;3.55;;
30677;SDS011;73746;47.466;8.992;2024-02-15T13:43:58;3.22;;;2.58;;
30677;SDS011;73746;47.466;8.992;2024-02-15T13:46:30;3.90;;;3.10;;
30677;SDS011;73746;47.466;8.992;2024-02-15T13:49:03;3.98;;;3.50;;
30677;SDS011;73746;47.466;8.992;2024-02-15T13:51:36;3.95;;;2.70;;
30677;SDS011;73746;47.466;8.992;2024-02-15T13:54:08;4.20;;;2.25;;
30677;SDS011;73746;47.466;8.992;2024-02-15T13:56:40;4.47;;;2.27;;
30677;SDS011;73746;47.466;8.992;2024-02-15T13:59:12;4.47;;;2.30;;
30677;SDS011;73746;47.466;8.992;2024-02-15T14:01:45;3.35;;;2.67;;
30677;SDS011;73746;47.466;8.992;2024-02-15T14:04:16;5.78;;;2.90;;
30677;SDS011;73746;47.466;8.992;2024-02-15T14:06:49;3.95;;;2.65;;
30677;SDS011;73746;47.466;8.992;2024-02-15T14:09:21;3.90;;;3.37;;
30677;SDS011;73746;47.466;8.992;2024-02-15T14:11:55;4.45;;;2.37;;
30677;SDS011;73746;47.466;8.992;2024-02-15T14:14:27;3.95;;;3.50;;
30677;SDS011;73746;47.466;8.992;2024-02-15T14:16:59;4.33;;;2.50;;
30677;SDS011;73746;47.466;8.992;2024-02-15T14:19:32;2.95;;;2.55;;
30677;SDS011;73746;47.466;8.992;2024-02-15T14:22:04;3.80;;;2.80;;
30677;SDS011;73746;47.466;8.992;2024-02-15T14:24:38;3.70;;;2.60;;
30677;SDS011;73746;47.466;8.992;2024-02-15T14:27:10;5.78;;;3.25;;
30677;SDS011;73746;47.466;8.992;2024-02-15T14:29:44;4.70;;;3.08;;
30677;SDS011;73746;47.466;8.992;2024-02-15T14:32:18;5.37;;;3.00;;
30677;SDS011;73746;47.466;8.992;2024-02-15T14:35:08;2.87;;;2.58;;
30677;SDS011;73746;47.466;8.992;2024-02-15T14:37:41;3.33;;;2.80;;
30677;SDS011;73746;47.466;8.992;2024-02-15T14:40:13;4.03;;;2.92;;
30677;SDS011;73746;47.466;8.992;2024-02-15T14:42:47;6.47;;;3.47;;
30677;SDS011;73746;47.466;8.992;2024-02-15T14:45:20;3.45;;;2.33;;
30677;SDS011;73746;47.466;8.992;2024-02-15T14:47:52;3.35;;;2.72;;
30677;SDS011;73746;47.466;8.992;2024-02-15T14:50:24;3.95;;;3.25;;
30677;SDS011;73746;47.466;8.992;2024-02-15T14:52:56;4.92;;;3.45;;
30677;SDS011;73746;47.466;8.992;2024-02-15T14:55:28;4.58;;;2.92;;
30677;SDS011;73746;47.466;8.992;2024-02-15T14:58:01;4.03;;;3.20;;
30677;SDS011;73746;47.466;8.992;2024-02-15T15:00:36;4.15;;;2.87;;
30677;SDS011;73746;47.466;8.992;2024-02-15T15:03:11;5.97;;;3.75;;
30677;SDS011;73746;47.466;8.992;2024-02-15T15:05:44;3.67;;;3.35;;
30677;SDS011;73746;47.466;8.992;2024-02-15T15:08:34;4.35;;;3.50;;
30677;SDS011;73746;47.466;8.992;2024-02-15T15:11:23;3.87;;;3.12;;
30677;SDS011;73746;47.466;8.992;2024-02-15T15:14:13;2.92;;;2.50;;
30677;SDS011;73746;47.466;8.992;2024-02-15T15:16:46;4.83;;;3.45;;
30677;SDS011;73746;47.466;8.992;2024-02-15T15:19:18;4.78;;;3.08;;
30677;SDS011;73746;47.466;8.992;2024-02-15T15:21:50;4.72;;;3.50;;
30677;SDS011;73746;47.466;8.992;2024-02-15T15:24:23;3.22;;;2.70;;
30677;SDS011;73746;47.466;8.992;2024-02-15T15:26:55;6.17;;;3.95;;
30677;SDS011;73746;47.466;8.992;2024-02-15T15:29:27;4.83;;;3.20;;
30677;SDS011;73746;47.466;8.992;2024-02-15T15:31:59;6.75;;;3.27;;
30677;SDS011;73746;47.466;8.992;2024-02-15T15:34:31;5.50;;;3.22;;
30677;SDS011;73746;47.466;8.992;2024-02-15T15:37:04;7.42;;;3.60;;
30677;SDS011;73746;47.466;8.992;2024-02-15T15:39:36;7.50;;;5.05;;
30677;SDS011;73746;47.466;8.992;2024-02-15T15:42:08;9.28;;;5.87;;
30677;SDS011;73746;47.466;8.992;2024-02-15T15:44:40;4.45;;;3.67;;
30677;SDS011;73746;47.466;8.992;2024-02-15T15:47:12;5.80;;;4.22;;